Saint Bethlehem, Tennessee
Current Conditions -  °F | °C
As of 10:52 AM on Thursday 30 Oct 2014 (Local Time) from KCKV Reporting Station
Clear Clear  
Wind Chill: 53°   Ceiling: Unl
Heat Index: 53°   Visibility: 10mi
Dew Point: 38°   Wind: 0mph
Humidity: 57%   Direction: NA
Pressure: 30.17"   Gusts: NA
Location:  36.57°N, 87.3°W
Report Text: KCKV 301552Z AUTO 00000KT 10SM CLR 12/03 A3017 RMK AO2 SLP216 T01170033
Loading
Personal Weather Stations






























Interactive Weather Map
Tropical Storm Tracking
New forecast layout! Learn more

10-Day Weather Forecast

Advertisements
Track Severe Weather on mobile